Time;durP1;ratioP1;P1;durP2;ratioP2;P2;SDS_P1;SDS_P2;PMS_P1;PMS_P2;Temp;Humidity;BMP_temperature;BMP_pressure;BME280_temperature;BME280_humidity;BME280_pressure;Samples;Min_cycle;Max_cycle;Signal;HPM_P1;HPM_P2
2022/07/30 00:01:34;;;;;;;6.85;1.75;;;;;;;20.09;44.61;100893.72;5041850;28;20045;-83
2022/07/30 00:04:02;;;;;;;9.68;2.03;;;;;;;20.07;44.73;100887.66;5047546;28;20408;-82
2022/07/30 00:06:30;;;;;;;4.90;1.52;;;;;;;20.04;44.86;100881.75;5040945;28;20084;-81
2022/07/30 00:08:57;;;;;;;9.43;2.47;;;;;;;20.00;44.80;100878.53;5051228;28;20076;-83
2022/07/30 00:11:24;;;;;;;4.70;1.92;;;;;;;19.98;45.05;100883.19;5050027;28;20033;-81
2022/07/30 00:13:54;;;;;;;10.75;1.92;;;;;;;19.95;45.00;100887.00;5069269;28;20108;-83
2022/07/30 00:16:22;;;;;;;6.22;2.20;;;;;;;19.92;45.44;100887.28;5061725;28;20068;-80
2022/07/30 00:18:49;;;;;;;5.82;2.10;;;;;;;19.90;45.31;100891.06;5056146;28;20060;-85
2022/07/30 00:21:17;;;;;;;10.93;2.47;;;;;;;19.87;45.45;100891.38;5068092;28;20028;-81
2022/07/30 00:24:05;;;;;;;3.33;1.83;;;;;;;19.85;45.81;100893.34;5068698;28;20045;-83
2022/07/30 00:26:33;;;;;;;6.40;2.05;;;;;;;19.83;45.42;100887.31;5067530;28;20049;-82
2022/07/30 00:29:00;;;;;;;5.28;1.80;;;;;;;19.80;45.83;100887.59;5071892;28;20143;-81
2022/07/30 00:31:27;;;;;;;12.07;1.90;;;;;;;19.76;45.93;100892.34;5067811;28;20053;-82
2022/07/30 00:33:55;;;;;;;5.32;2.35;;;;;;;19.73;46.00;100884.66;5053041;28;20064;-83
2022/07/30 00:36:22;;;;;;;3.38;1.70;;;;;;;19.71;46.08;100876.75;5062177;28;20048;-82
2022/07/30 00:38:49;;;;;;;6.72;1.80;;;;;;;19.70;46.36;100879.59;5064296;28;20268;-84
2022/07/30 00:41:16;;;;;;;8.70;1.70;;;;;;;19.67;46.60;100875.38;5065079;28;20392;-82
2022/07/30 00:43:44;;;;;;;3.83;2.03;;;;;;;19.64;46.46;100885.50;5043908;28;20120;-79
2022/07/30 00:46:13;;;;;;;5.88;2.25;;;;;;;19.62;46.47;100882.13;5068508;28;20124;-82
2022/07/30 00:48:41;;;;;;;4.93;1.77;;;;;;;19.59;46.44;100885.91;5064974;28;20052;-82
2022/07/30 00:51:08;;;;;;;7.90;2.28;;;;;;;19.58;46.62;100880.69;5065814;28;20048;-84
2022/07/30 00:53:35;;;;;;;4.70;1.77;;;;;;;19.54;46.82;100872.13;5049619;28;20049;-83
2022/07/30 00:56:03;;;;;;;6.30;1.90;;;;;;;19.53;46.89;100867.75;5065862;28;20472;-81
2022/07/30 00:58:31;;;;;;;6.10;1.90;;;;;;;19.49;47.09;100869.03;5061987;28;20112;-84
2022/07/30 01:00:58;;;;;;;4.78;1.45;;;;;;;19.45;47.10;100868.50;5043703;28;20033;-82
2022/07/30 01:03:25;;;;;;;8.05;1.83;;;;;;;19.43;47.56;100877.63;5027109;28;20029;-80
2022/07/30 01:05:53;;;;;;;8.20;2.22;;;;;;;19.41;47.56;100874.25;5048663;28;20108;-85
2022/07/30 01:08:20;;;;;;;8.85;1.67;;;;;;;19.36;47.62;100869.34;5060362;28;20037;-83
2022/07/30 01:10:48;;;;;;;8.02;1.98;;;;;;;19.34;47.81;100868.63;5064310;28;20128;-83
2022/07/30 01:13:15;;;;;;;8.38;1.73;;;;;;;19.33;47.92;100871.44;5067370;28;20037;-82
2022/07/30 01:15:42;;;;;;;7.05;1.80;;;;;;;19.31;47.93;100868.06;5066108;28;20068;-84
2022/07/30 01:18:11;;;;;;;6.15;1.80;;;;;;;19.29;48.05;100868.22;5057715;28;20487;-82
2022/07/30 01:20:59;;;;;;;6.72;1.85;;;;;;;19.28;48.15;100868.38;5067522;28;20091;-81
2022/07/30 01:23:30;;;;;;;5.05;1.88;;;;;;;19.26;48.00;100878.31;5052119;28;20055;-83
2022/07/30 01:26:02;;;;;;;6.95;2.08;;;;;;;19.23;48.73;100864.28;5070543;28;20086;-83
2022/07/30 01:28:33;;;;;;;10.77;2.22;;;;;;;19.22;48.32;100870.59;5049152;28;20117;-82
2022/07/30 01:31:01;;;;;;;5.80;2.15;;;;;;;19.21;48.56;100873.41;5071856;28;20056;-83
2022/07/30 01:33:29;;;;;;;3.95;1.98;;;;;;;19.19;49.11;100862.03;5065964;28;20040;-83
2022/07/30 01:35:58;;;;;;;3.58;1.83;;;;;;;19.15;48.86;100869.47;5018276;28;20044;-83
2022/07/30 01:38:27;;;;;;;8.25;2.13;;;;;;;19.14;48.94;100869.63;5072604;28;20053;-84
2022/07/30 01:41:01;;;;;;;6.63;1.88;;;;;;;19.10;48.58;100861.06;5043765;28;20037;-83
2022/07/30 01:43:29;;;;;;;3.53;1.70;;;;;;;19.09;49.06;100862.03;5042955;28;20045;-84
2022/07/30 01:45:57;;;;;;;5.88;2.10;;;;;;;19.06;49.06;100861.47;5062314;28;20037;-83
2022/07/30 01:48:25;;;;;;;8.40;2.17;;;;;;;19.05;49.11;100862.44;5039613;28;20145;-80
2022/07/30 01:50:54;;;;;;;7.10;1.88;;;;;;;19.03;49.15;100865.25;5052379;28;20155;-81
2022/07/30 01:53:24;;;;;;;5.78;1.95;;;;;;;19.02;49.19;100860.06;5073926;28;20093;-82
2022/07/30 01:55:54;;;;;;;5.63;1.63;;;;;;;18.99;49.45;100858.50;5038151;28;20049;-81
2022/07/30 01:58:25;;;;;;;10.07;1.80;;;;;;;18.95;49.40;100854.41;5064099;28;20049;-83
2022/07/30 02:00:54;;;;;;;5.97;1.77;;;;;;;18.94;48.96;100855.41;5069814;28;20068;-85
2022/07/30 02:03:22;;;;;;;8.38;1.90;;;;;;;18.91;49.53;100851.22;5038382;28;20122;-84
2022/07/30 02:05:53;;;;;;;6.43;2.08;;;;;;;18.89;49.67;100855.81;5045496;28;20072;-83
2022/07/30 02:08:37;;;;;;;9.80;2.10;;;;;;;18.86;49.88;100861.44;5048473;28;20056;-83
2022/07/30 02:14:17;;;;;;;4.38;1.90;;;;;;;18.80;49.88;100864.66;5070622;28;20429;-83
2022/07/30 02:16:49;;;;;;;6.45;2.05;;;;;;;18.82;49.92;100859.16;5050554;28;20117;-83
2022/07/30 02:19:17;;;;;;;5.45;1.90;;;;;;;18.80;49.85;100862.00;5040985;28;20048;-81
2022/07/30 02:21:46;;;;;;;9.27;2.22;;;;;;;18.77;50.29;100861.41;5066391;28;20068;-83
2022/07/30 02:24:27;;;;;;;5.38;1.55;;;;;;;18.76;50.12;100865.06;5045636;28;20053;-82
2022/07/30 02:27:01;;;;;;;6.35;1.90;;;;;;;18.76;50.05;100859.75;5062405;28;20061;-83
2022/07/30 02:29:32;;;;;;;3.00;1.70;;;;;;;18.74;50.17;100859.88;5066070;28;20048;-83
2022/07/30 02:32:04;;;;;;;6.93;1.90;;;;;;;18.70;50.23;100859.31;5035508;28;20059;-83
2022/07/30 02:34:35;;;;;;;3.85;1.50;;;;;;;18.68;50.42;100857.72;5041227;28;20063;-80
2022/07/30 02:37:04;;;;;;;3.00;1.63;;;;;;;18.65;50.55;100855.34;5020886;28;20084;-83
2022/07/30 02:39:32;;;;;;;7.70;2.28;;;;;;;18.63;50.79;100849.28;5059372;28;20350;-84
2022/07/30 02:42:00;;;;;;;8.68;1.83;;;;;;;18.60;50.85;100853.09;5052245;28;20045;-84
2022/07/30 02:44:28;;;;;;;5.40;1.60;;;;;;;18.58;51.09;100847.03;5067938;28;20075;-78
2022/07/30 02:46:56;;;;;;;5.10;1.88;;;;;;;18.54;51.04;100848.28;5070673;28;20039;-83
2022/07/30 02:49:26;;;;;;;5.68;1.80;;;;;;;18.52;51.45;100838.75;5078719;28;20064;-80
2022/07/30 02:51:53;;;;;;;10.40;1.83;;;;;;;18.51;51.74;100837.91;5061261;28;20071;-80
2022/07/30 02:54:21;;;;;;;3.72;1.73;;;;;;;18.48;51.90;100833.69;5044235;28;20032;-80
2022/07/30 02:56:50;;;;;;;4.30;1.67;;;;;;;18.46;52.03;100837.44;5063222;28;20028;-81
2022/07/30 02:59:19;;;;;;;5.28;1.70;;;;;;;18.44;51.89;100834.09;5079128;28;20044;-80
2022/07/30 03:01:47;;;;;;;4.15;1.80;;;;;;;18.41;51.98;100834.34;5055163;28;20139;-80
2022/07/30 03:04:18;;;;;;;5.75;1.83;;;;;;;18.39;52.10;100833.66;5069320;28;20113;-81
2022/07/30 03:06:45;;;;;;;5.35;1.73;;;;;;;18.38;51.90;100837.31;5076425;28;20112;-82
2022/07/30 03:09:14;;;;;;;4.32;1.80;;;;;;;18.36;51.98;100829.44;5074614;28;20032;-81
2022/07/30 03:11:43;;;;;;;5.68;1.80;;;;;;;18.36;52.04;100834.75;5063007;28;20061;-81
2022/07/30 03:14:10;;;;;;;4.07;2.00;;;;;;;18.36;52.25;100844.56;5055924;28;20017;-81
2022/07/30 03:16:40;;;;;;;9.75;1.83;;;;;;;18.35;52.40;100848.22;5060643;28;20053;-82
2022/07/30 03:19:08;;;;;;;9.13;2.03;;;;;;;18.32;52.47;100845.81;5062231;28;21190;-85
2022/07/30 03:21:36;;;;;;;4.57;1.73;;;;;;;18.32;52.50;100859.16;5066392;28;20057;-79
2022/07/30 03:24:05;;;;;;;2.40;1.35;;;;;;;18.33;52.20;100852.88;5054694;28;20154;-84
2022/07/30 03:26:34;;;;;;;4.00;1.80;;;;;;;18.31;52.54;100852.13;5061079;28;20051;-84
2022/07/30 03:29:01;;;;;;;8.55;1.85;;;;;;;18.32;52.63;100851.16;5069612;28;20049;-84
2022/07/30 03:31:29;;;;;;;4.13;1.25;;;;;;;18.31;52.43;100850.31;5062043;28;20121;-82
2022/07/30 03:34:04;;;;;;;6.18;2.03;;;;;;;18.30;52.87;100853.97;5067875;28;20091;-82
2022/07/30 03:36:33;;;;;;;6.25;1.88;;;;;;;18.31;52.85;100854.81;5060256;28;20059;-84
2022/07/30 03:39:02;;;;;;;4.50;1.73;;;;;;;18.30;53.14;100859.28;5066118;28;20112;-83
2022/07/30 03:41:30;;;;;;;5.07;1.73;;;;;;;18.31;52.87;100868.13;5043509;28;20037;-83
2022/07/30 03:43:59;;;;;;;6.10;1.48;;;;;;;18.30;52.69;100856.63;5060423;28;20104;-81
2022/07/30 03:46:27;;;;;;;6.32;1.60;;;;;;;18.31;52.90;100863.63;5052223;28;20105;-82
2022/07/30 03:48:56;;;;;;;5.55;1.85;;;;;;;18.32;52.60;100856.47;5063662;28;20053;-82
2022/07/30 03:51:23;;;;;;;3.60;1.42;;;;;;;18.30;52.85;100866.44;5038464;28;20057;-85
2022/07/30 03:53:50;;;;;;;4.25;1.77;;;;;;;18.32;52.98;100862.66;5044783;28;20337;-81
2022/07/30 03:56:18;;;;;;;4.93;1.50;;;;;;;18.31;52.63;100871.63;5042283;28;20052;-80
2022/07/30 03:58:45;;;;;;;5.43;1.77;;;;;;;18.33;53.05;100863.53;5067617;28;20054;-82
2022/07/30 04:01:12;;;;;;;5.25;1.52;;;;;;;18.34;52.82;100871.38;5058253;28;20044;-81
2022/07/30 04:03:39;;;;;;;4.38;1.77;;;;;;;18.37;52.34;100870.25;5077697;28;20021;-84
2022/07/30 04:06:07;;;;;;;6.85;1.55;;;;;;;18.39;52.36;100871.81;5057628;28;20049;-82
2022/07/30 04:08:34;;;;;;;5.32;1.42;;;;;;;18.40;52.45;100870.81;5047722;28;20525;-80
2022/07/30 04:11:02;;;;;;;2.75;1.35;;;;;;;18.41;52.48;100871.66;5050765;28;20115;-81
2022/07/30 04:13:30;;;;;;;7.95;1.55;;;;;;;18.43;52.88;100873.22;5050844;28;20045;-84
2022/07/30 04:16:17;;;;;;;2.92;1.92;;;;;;;18.44;52.88;100884.75;5062199;28;20178;-83
2022/07/30 04:19:07;;;;;;;4.43;1.58;;;;;;;18.47;52.38;100890.66;5064633;28;20056;-80
2022/07/30 04:21:37;;;;;;;3.88;1.70;;;;;;;18.51;52.16;100898.34;5062403;28;20473;-84
2022/07/30 04:24:04;;;;;;;3.13;1.33;;;;;;;18.51;52.31;100888.56;5040523;28;20048;-81
2022/07/30 04:26:34;;;;;;;8.48;1.38;;;;;;;18.55;52.45;100891.78;5050290;28;20049;-83
2022/07/30 04:29:04;;;;;;;6.50;1.40;;;;;;;18.57;52.34;100897.84;5030252;28;20044;-82
2022/07/30 04:31:34;;;;;;;5.65;1.88;;;;;;;18.57;52.45;100897.84;5023045;28;20135;-82
2022/07/30 04:34:07;;;;;;;3.88;1.50;;;;;;;18.59;52.71;100902.03;5045256;28;20065;-82
2022/07/30 04:36:37;;;;;;;4.68;1.45;;;;;;;18.62;52.64;100903.59;5055883;28;20060;-82
2022/07/30 04:39:05;;;;;;;4.78;1.35;;;;;;;18.65;52.43;100908.69;5030574;28;20070;-81
2022/07/30 04:41:32;;;;;;;4.65;1.27;;;;;;;18.66;52.90;100913.84;5040625;28;20055;-82
2022/07/30 04:44:17;;;;;;;4.38;1.55;;;;;;;18.71;52.27;100914.31;5056457;28;20509;-82
2022/07/30 04:46:46;;;;;;;10.32;1.50;;;;;;;18.74;52.25;100907.06;5027024;28;20048;-83
2022/07/30 04:49:14;;;;;;;3.65;1.50;;;;;;;18.76;51.91;100907.75;5061431;28;20049;-82
2022/07/30 04:51:43;;;;;;;2.75;1.40;;;;;;;18.79;52.10;100907.47;5047732;28;20082;-81
2022/07/30 04:54:12;;;;;;;7.18;1.30;;;;;;;18.83;51.85;100900.91;5066843;28;20055;-79
2022/07/30 04:56:46;;;;;;;4.72;1.52;;;;;;;18.86;51.83;100897.94;5062555;28;20044;-79
2022/07/30 04:59:27;;;;;;;3.50;1.50;;;;;;;18.92;51.79;100903.59;5051539;28;20055;-81
2022/07/30 05:01:57;;;;;;;4.95;1.30;;;;;;;18.95;52.09;100905.94;5064831;28;20071;-79
2022/07/30 05:04:25;;;;;;;10.65;1.88;;;;;;;19.00;52.18;100904.69;5059983;28;20079;-79
2022/07/30 05:06:52;;;;;;;6.18;1.58;;;;;;;19.02;51.86;100906.25;5070260;28;20112;-82
2022/07/30 05:09:20;;;;;;;2.25;1.27;;;;;;;19.06;51.78;100899.66;5055071;28;20057;-82
2022/07/30 05:11:51;;;;;;;6.20;1.65;;;;;;;19.11;51.88;100897.41;5062425;28;20063;-83
2022/07/30 05:14:20;;;;;;;7.32;1.70;;;;;;;19.20;52.21;100907.25;5035952;28;20146;-82
2022/07/30 05:16:48;;;;;;;4.80;1.70;;;;;;;19.25;51.76;100901.50;5057421;28;20048;-84
2022/07/30 05:19:16;;;;;;;3.95;1.30;;;;;;;19.30;51.54;100911.75;5044456;28;20056;-83
2022/07/30 05:21:43;;;;;;;11.35;1.88;;;;;;;19.35;51.55;100913.03;5021193;28;20041;-83
2022/07/30 05:24:10;;;;;;;5.15;1.80;;;;;;;19.38;51.60;100910.09;5046019;28;20044;-82
2022/07/30 05:26:38;;;;;;;3.03;1.40;;;;;;;19.39;51.49;100903.75;5038697;28;20059;-81
2022/07/30 05:29:05;;;;;;;2.85;1.30;;;;;;;19.44;51.46;100900.66;5034887;28;20061;-84
2022/07/30 05:31:34;;;;;;;3.55;1.45;;;;;;;19.50;51.00;100900.13;5066805;28;20125;-81
2022/07/30 05:34:04;;;;;;;6.03;1.30;;;;;;;19.48;51.59;100899.41;5053525;28;20090;-81
2022/07/30 05:36:31;;;;;;;2.85;1.40;;;;;;;19.54;51.24;100900.66;5060081;28;20044;-80
2022/07/30 05:38:59;;;;;;;3.30;1.40;;;;;;;19.58;51.32;100897.56;5035863;28;20105;-82
2022/07/30 05:41:26;;;;;;;4.78;1.52;;;;;;;19.62;51.14;100888.31;5033545;28;20139;-83
2022/07/30 05:43:59;;;;;;;4.68;1.70;;;;;;;19.65;51.55;100892.53;5047135;28;20116;-82
2022/07/30 05:46:27;;;;;;;2.42;1.10;;;;;;;19.68;51.33;100884.25;5034240;28;20044;-82
2022/07/30 05:48:54;;;;;;;4.90;1.15;;;;;;;19.75;51.35;100890.69;5057493;28;20397;-82
2022/07/30 05:51:21;;;;;;;5.28;1.40;;;;;;;19.81;51.33;100902.63;5056580;28;20306;-80
2022/07/30 05:53:48;;;;;;;5.65;1.40;;;;;;;19.86;51.25;100903.06;5064193;28;20044;-80
2022/07/30 05:56:16;;;;;;;5.47;1.67;;;;;;;19.86;51.22;100900.38;5073602;28;20033;-81
2022/07/30 05:58:43;;;;;;;5.57;1.42;;;;;;;19.85;51.34;100906.69;5032384;28;20045;-84
2022/07/30 06:01:10;;;;;;;5.30;1.58;;;;;;;19.86;51.22;100901.22;5023654;28;20037;-83
2022/07/30 06:03:38;;;;;;;2.80;1.38;;;;;;;19.87;51.10;100908.25;5053579;28;20044;-83
2022/07/30 06:06:06;;;;;;;4.85;1.52;;;;;;;19.87;51.20;100918.94;5042421;28;20516;-83
2022/07/30 06:08:34;;;;;;;6.75;1.75;;;;;;;19.86;50.82;100921.75;5027272;28;20053;-82
2022/07/30 06:11:01;;;;;;;4.18;1.27;;;;;;;19.88;51.00;100919.78;5045780;28;20056;-81
2022/07/30 06:13:28;;;;;;;5.45;1.40;;;;;;;19.94;51.05;100914.69;5045334;28;20396;-82
2022/07/30 06:15:56;;;;;;;12.77;1.52;;;;;;;20.01;50.92;100919.47;5042336;28;20053;-82
2022/07/30 06:18:24;;;;;;;5.95;1.40;;;;;;;20.02;51.18;100913.97;5059741;28;20409;-84
2022/07/30 06:20:53;;;;;;;3.13;1.98;;;;;;;20.02;51.14;100916.63;5056246;28;20131;-82
2022/07/30 06:23:21;;;;;;;3.25;1.58;;;;;;;20.03;51.09;100920.16;5037567;28;20037;-80
2022/07/30 06:25:49;;;;;;;3.95;1.52;;;;;;;20.03;51.11;100920.16;5043948;28;20079;-80
2022/07/30 06:28:17;;;;;;;6.30;2.08;;;;;;;20.07;50.95;100925.06;5035613;28;20501;-81
2022/07/30 06:31:04;;;;;;;3.60;1.65;;;;;;;20.16;50.99;100923.34;5061322;28;20519;-83
2022/07/30 06:33:32;;;;;;;3.30;1.42;;;;;;;20.20;50.89;100930.94;5059777;28;20044;-83
2022/07/30 06:36:00;;;;;;;8.27;1.50;;;;;;;20.28;50.89;100930.22;5058210;28;20128;-84
2022/07/30 06:38:27;;;;;;;6.70;1.98;;;;;;;20.32;51.10;100928.94;5050756;28;20055;-82
2022/07/30 06:40:55;;;;;;;2.42;1.23;;;;;;;20.36;50.52;100929.50;5044144;28;20059;-85
2022/07/30 06:43:28;;;;;;;4.03;1.05;;;;;;;20.43;50.61;100927.91;5062733;28;20049;-81
2022/07/30 06:45:56;;;;;;;5.25;2.17;;;;;;;20.51;50.50;100929.88;5069367;28;20128;-84
2022/07/30 06:48:23;;;;;;;3.85;1.40;;;;;;;20.56;50.40;100932.97;5062181;28;20045;-83
2022/07/30 06:50:50;;;;;;;8.27;1.70;;;;;;;20.56;50.51;100936.47;5041054;28;20045;-84
2022/07/30 06:53:18;;;;;;;7.82;1.40;;;;;;;20.62;50.65;100935.03;5037827;28;20029;-83
2022/07/30 06:55:45;;;;;;;5.53;1.73;;;;;;;20.64;50.77;100944.59;5055491;28;20418;-83
2022/07/30 06:58:12;;;;;;;4.00;1.35;;;;;;;20.72;50.39;100936.69;5056845;28;20148;-83
2022/07/30 07:00:39;;;;;;;5.43;1.20;;;;;;;20.73;50.57;100937.53;5059381;28;20115;-81
2022/07/30 07:03:07;;;;;;;2.85;1.20;;;;;;;20.79;50.26;100939.59;5061015;28;20049;-83
2022/07/30 07:05:37;;;;;;;2.95;1.30;;;;;;;20.84;50.39;100934.63;5042030;28;20136;-82
2022/07/30 07:08:05;;;;;;;4.18;1.95;;;;;;;20.84;50.43;100945.34;5058947;28;20059;-83
2022/07/30 07:10:32;;;;;;;4.07;1.52;;;;;;;20.87;50.64;100936.19;5061815;28;20055;-80
2022/07/30 07:12:59;;;;;;;4.90;1.38;;;;;;;20.89;50.48;100936.88;5069747;28;20060;-83
2022/07/30 07:15:27;;;;;;;6.75;2.17;;;;;;;20.86;50.52;100946.06;5060166;28;20045;-83
2022/07/30 07:18:04;;;;;;;6.65;1.52;;;;;;;20.89;50.78;100942.22;5027709;28;20049;-79
2022/07/30 07:20:32;;;;;;;3.67;1.40;;;;;;;20.97;50.70;100934.28;5065330;28;20136;-82
2022/07/30 07:22:59;;;;;;;5.15;1.45;;;;;;;21.13;50.22;100931.81;5056841;28;20076;-83
2022/07/30 07:25:32;;;;;;;9.50;1.52;;;;;;;21.22;49.69;100936.25;5048109;28;20191;-81
2022/07/30 07:27:59;;;;;;;3.00;1.60;;;;;;;21.32;49.79;100941.56;5061755;28;20304;-83
2022/07/30 07:30:40;;;;;;;3.00;0.95;;;;;;;21.36;49.99;100934.91;5059266;28;20040;-84
2022/07/30 07:33:08;;;;;;;3.63;1.17;;;;;;;21.45;49.58;100935.81;5030165;28;20071;-83
2022/07/30 07:35:36;;;;;;;3.92;1.40;;;;;;;21.54;49.73;100934.91;5045283;28;20058;-83
2022/07/30 07:38:17;;;;;;;5.13;1.70;;;;;;;21.58;49.77;100936.28;5053234;28;20064;-82
2022/07/30 07:40:44;;;;;;;5.32;1.60;;;;;;;21.64;49.41;100926.78;5022414;28;20044;-84
2022/07/30 07:43:13;;;;;;;4.32;1.65;;;;;;;21.70;49.69;100935.06;5054985;28;20117;-84
2022/07/30 07:45:41;;;;;;;7.25;1.67;;;;;;;21.83;49.15;100936.47;5060500;28;20052;-83
2022/07/30 07:48:08;;;;;;;5.15;1.48;;;;;;;21.94;49.02;100939.75;5023809;28;20037;-83
2022/07/30 07:50:35;;;;;;;3.65;1.55;;;;;;;22.01;49.00;100937.28;5038921;28;20080;-82
2022/07/30 07:53:03;;;;;;;6.63;1.67;;;;;;;22.09;48.43;100937.31;5061541;28;20537;-83
2022/07/30 07:55:30;;;;;;;5.80;1.75;;;;;;;22.18;48.62;100941.78;5026238;28;20497;-83
2022/07/30 07:57:59;;;;;;;2.42;1.45;;;;;;;22.28;47.99;100947.03;5055917;28;20043;-81
2022/07/30 08:00:27;;;;;;;2.90;1.48;;;;;;;22.43;48.05;100949.97;5049216;28;20041;-83
2022/07/30 08:02:55;;;;;;;10.13;1.70;;;;;;;22.54;47.39;100948.84;5027820;28;20048;-83
2022/07/30 08:05:22;;;;;;;3.58;1.55;;;;;;;22.63;47.21;100948.72;5054995;28;20135;-83
2022/07/30 08:07:50;;;;;;;15.13;2.80;;;;;;;22.73;46.76;100940.53;5025169;28;20131;-83
2022/07/30 08:10:17;;;;;;;3.03;1.35;;;;;;;22.82;46.77;100936.88;5059657;28;20055;-84
2022/07/30 08:12:45;;;;;;;2.67;1.23;;;;;;;22.82;46.72;100944.94;5049871;28;20455;-84
2022/07/30 08:15:12;;;;;;;4.65;1.30;;;;;;;22.94;46.60;100937.47;5042840;28;20044;-84
2022/07/30 08:17:40;;;;;;;4.38;1.70;;;;;;;23.05;46.19;100944.38;5044160;28;20045;-82
2022/07/30 08:20:08;;;;;;;10.13;1.65;;;;;;;23.11;46.11;100949.94;5070089;28;20064;-83
2022/07/30 08:22:36;;;;;;;4.25;1.50;;;;;;;23.19;45.85;100938.34;5041444;28;20054;-82
2022/07/30 08:25:04;;;;;;;6.20;1.98;;;;;;;23.28;45.69;100940.09;5043138;28;20045;-81
2022/07/30 08:27:32;;;;;;;7.93;1.80;;;;;;;23.35;45.74;100933.03;5040895;28;20072;-80
2022/07/30 08:30:05;;;;;;;4.53;1.88;;;;;;;23.47;45.35;100944.31;5054529;28;20041;-82
2022/07/30 08:32:32;;;;;;;5.30;1.48;;;;;;;23.51;45.02;100940.28;5058611;28;20046;-83
2022/07/30 08:35:00;;;;;;;4.10;1.85;;;;;;;23.52;45.08;100936.56;5045020;28;20033;-80
2022/07/30 08:37:27;;;;;;;2.80;1.35;;;;;;;23.60;45.02;100943.81;5054209;22;20530;-55
2022/07/30 08:39:55;;;;;;;3.10;1.42;;;;;;;23.71;44.58;100941.66;5045287;28;20052;-53
2022/07/30 08:42:22;;;;;;;2.83;1.50;;;;;;;23.77;44.82;100941.97;5054733;28;20057;-55
2022/07/30 08:44:55;;;;;;;5.88;1.90;;;;;;;23.82;44.64;100940.47;5067808;22;20466;-58
2022/07/30 08:47:27;;;;;;;3.88;1.80;;;;;;;23.86;44.61;100940.97;5035115;28;20668;-55
2022/07/30 08:50:00;;;;;;;7.05;1.42;;;;;;;23.94;44.88;100939.09;5035765;28;20053;-57
2022/07/30 08:52:27;;;;;;;11.32;2.10;;;;;;;24.06;44.21;100942.28;5048272;28;20054;-59
2022/07/30 08:54:54;;;;;;;10.63;2.65;;;;;;;24.13;44.25;100962.09;5027890;28;20075;-55
2022/07/30 08:57:22;;;;;;;10.45;2.53;;;;;;;24.24;44.01;100952.84;5030826;28;20053;-57
2022/07/30 08:59:50;;;;;;;7.30;1.25;;;;;;;24.07;43.34;100948.50;5032222;28;20476;-58
2022/07/30 09:02:30;;;;;;;4.43;1.90;;;;;;;24.16;43.41;100942.09;5034085;28;20057;-58
2022/07/30 09:04:57;;;;;;;13.23;2.75;;;;;;;24.28;43.21;100943.44;5037958;28;20064;-58
2022/07/30 09:07:25;;;;;;;5.22;1.45;;;;;;;24.39;43.15;100942.25;5027246;28;20050;-57
2022/07/30 09:09:52;;;;;;;3.85;1.45;;;;;;;24.40;43.18;100943.91;5033166;28;20069;-57
2022/07/30 09:12:39;;;;;;;5.85;1.70;;;;;;;24.52;43.17;100944.41;5039147;28;20378;-56
2022/07/30 09:15:19;;;;;;;5.13;1.85;;;;;;;24.63;42.77;100946.69;5035060;28;20141;-56
2022/07/30 09:17:48;;;;;;;3.67;1.50;;;;;;;24.67;42.42;100942.66;5032254;28;20064;-55
2022/07/30 09:20:16;;;;;;;4.25;1.33;;;;;;;24.61;42.39;100948.75;5036143;28;20077;-56
2022/07/30 09:22:46;;;;;;;5.43;1.58;;;;;;;24.58;42.34;100951.78;5036923;28;20052;-58
2022/07/30 09:25:13;;;;;;;4.25;1.73;;;;;;;24.63;42.48;100944.00;5034847;28;20060;-58
2022/07/30 09:27:48;;;;;;;9.45;1.95;;;;;;;24.65;42.68;100947.38;5038818;28;20350;-57
2022/07/30 09:30:15;;;;;;;6.57;1.52;;;;;;;24.76;42.44;100944.28;5031895;28;20576;-55
2022/07/30 09:32:53;;;;;;;9.38;1.83;;;;;;;24.88;42.54;100932.13;5037389;28;20140;-54
2022/07/30 09:35:23;;;;;;;4.03;1.40;;;;;;;24.98;42.49;100938.13;5031664;28;20045;-57
2022/07/30 09:37:59;;;;;;;5.00;1.55;;;;;;;25.04;42.53;100933.91;5032335;28;20496;-57
2022/07/30 09:40:32;;;;;;;5.35;1.42;;;;;;;24.96;41.55;100932.09;5046481;28;20052;-57
2022/07/30 09:43:08;;;;;;;3.30;1.13;;;;;;;24.93;42.14;100934.28;5047211;28;20060;-54
2022/07/30 09:45:48;;;;;;;2.97;1.27;;;;;;;25.06;41.83;100939.94;5034114;28;20046;-56
2022/07/30 09:48:26;;;;;;;6.20;1.52;;;;;;;25.13;41.92;100935.56;5037257;28;20219;-53
2022/07/30 09:50:54;;;;;;;4.88;1.70;;;;;;;25.12;41.80;100935.72;5024468;28;20054;-57
2022/07/30 09:53:23;;;;;;;3.70;1.20;;;;;;;25.17;41.25;100941.41;5038559;28;20061;-57
2022/07/30 09:55:51;;;;;;;5.82;1.33;;;;;;;25.16;41.21;100935.19;5031801;28;20049;-56
2022/07/30 09:58:18;;;;;;;2.45;1.17;;;;;;;25.09;41.47;100938.78;5035703;28;20049;-57
2022/07/30 10:00:59;;;;;;;2.45;1.10;;;;;;;25.14;41.59;100942.63;5027531;28;20053;-56
2022/07/30 10:03:26;;;;;;;2.45;1.50;;;;;;;25.22;41.32;100942.56;5031285;28;20053;-57
2022/07/30 10:06:09;;;;;;;5.70;1.10;;;;;;;25.29;41.42;100931.91;5032989;28;20064;-53
2022/07/30 10:08:44;;;;;;;3.80;1.40;;;;;;;25.52;41.27;100940.00;5025383;28;20056;-56
2022/07/30 10:11:14;;;;;;;7.05;1.42;;;;;;;25.60;40.35;100939.94;5036725;28;20041;-57
2022/07/30 10:13:42;;;;;;;4.60;1.20;;;;;;;25.64;40.45;100938.56;5035292;28;20049;-57
2022/07/30 10:16:12;;;;;;;3.38;1.20;;;;;;;25.79;40.15;100935.94;5033984;28;20054;-57
2022/07/30 10:18:41;;;;;;;7.15;1.70;;;;;;;25.92;40.01;100938.00;5031826;28;20049;-57
2022/07/30 10:21:08;;;;;;;9.00;1.95;;;;;;;25.91;40.21;100939.03;5029555;28;20052;-55
2022/07/30 10:23:35;;;;;;;6.00;1.35;;;;;;;26.09;40.10;100939.53;5033407;28;20045;-57
2022/07/30 10:26:10;;;;;;;;;;;;;;;26.23;39.48;100945.97;5030360;28;20045;-57
2022/07/30 10:28:39;;;;;;;3.45;1.13;;;;;;;26.33;39.84;100941.13;5050290;28;20011;-57
2022/07/30 10:31:06;;;;;;;2.50;1.40;;;;;;;26.45;39.37;100936.13;5036462;28;20049;-56
2022/07/30 10:33:53;;;;;;;4.45;1.50;;;;;;;26.56;39.71;100935.66;5036547;28;20186;-58
2022/07/30 10:36:21;;;;;;;4.05;1.58;;;;;;;26.60;38.98;100947.75;5047264;28;20506;-57
2022/07/30 10:38:51;;;;;;;6.53;1.63;;;;;;;26.60;38.89;100949.63;5053562;28;20057;-57
2022/07/30 10:41:32;;;;;;;3.05;0.95;;;;;;;26.67;39.23;100945.16;5028891;28;20493;-55
2022/07/30 10:44:44;;;;;;;5.88;1.40;;;;;;;26.94;38.53;100939.06;5032706;28;20063;-57
2022/07/30 10:47:13;;;;;;;2.33;1.10;;;;;;;27.19;38.62;100936.03;5035713;28;20517;-58
2022/07/30 10:49:40;;;;;;;4.75;1.30;;;;;;;27.24;38.22;100934.44;5030664;28;20053;-56
2022/07/30 10:52:09;;;;;;;4.05;1.02;;;;;;;27.36;36.76;100932.03;5026035;28;20046;-58
2022/07/30 10:54:46;;;;;;;2.70;1.17;;;;;;;27.29;37.25;100933.88;5025269;28;20393;-57
2022/07/30 10:57:14;;;;;;;4.78;1.48;;;;;;;27.26;36.74;100934.25;5038125;28;20128;-57
2022/07/30 10:59:57;;;;;;;3.25;1.00;;;;;;;27.26;36.76;100936.94;5033497;28;20514;-57
2022/07/30 11:02:28;;;;;;;3.65;0.90;;;;;;;27.27;36.56;100938.59;5032735;28;20556;-57
2022/07/30 11:05:18;;;;;;;3.33;1.30;;;;;;;27.19;37.00;100934.16;5035136;28;20059;-57
2022/07/30 11:08:43;;;;;;;2.95;1.02;;;;;;;27.16;36.78;100939.97;5028604;28;20045;-57
2022/07/30 11:11:19;;;;;;;2.40;1.05;;;;;;;27.12;36.74;100933.25;5036797;28;20123;-57
2022/07/30 11:14:06;;;;;;;5.82;1.55;;;;;;;27.12;36.53;100935.97;5033080;28;20061;-56
2022/07/30 11:16:34;;;;;;;3.17;1.20;;;;;;;27.06;36.23;100928.56;5030703;28;20086;-58
2022/07/30 11:19:12;;;;;;;4.57;1.00;;;;;;;27.09;36.75;100936.34;5036644;28;20415;-59
2022/07/30 11:22:24;;;;;;;2.03;0.80;;;;;;;27.07;36.50;100932.13;5034267;28;20132;-55
2022/07/30 11:24:52;;;;;;;4.05;0.98;;;;;;;27.05;36.84;100929.59;5034314;28;20505;-56
2022/07/30 11:27:39;;;;;;;2.28;1.17;;;;;;;27.22;36.76;100925.66;5031453;28;20067;-52
2022/07/30 11:30:16;;;;;;;2.25;1.20;;;;;;;27.45;35.67;100932.75;5033267;28;20133;-52
2022/07/30 11:32:50;;;;;;;4.32;1.13;;;;;;;27.67;34.79;100926.31;5036900;28;20049;-56
2022/07/30 11:35:28;;;;;;;3.28;0.90;;;;;;;27.79;34.35;100936.66;5031391;28;20064;-53
2022/07/30 11:38:18;;;;;;;2.03;0.90;;;;;;;27.87;34.81;100931.91;5029162;28;20050;-55
2022/07/30 11:40:45;;;;;;;2.08;0.90;;;;;;;27.92;34.50;100934.00;5027611;28;20064;-58
2022/07/30 11:43:32;;;;;;;1.58;0.90;;;;;;;28.06;33.85;100937.69;5026243;28;20041;-57